sensor_id;sensor_type;location;lat;lon;timestamp;temperature;humidity
9006;DHT22;62284;50.702;7.140;2022-11-14T00:02:18;5.80;99.90
9006;DHT22;62284;50.702;7.140;2022-11-14T00:04:47;5.70;99.90
9006;DHT22;62284;50.702;7.140;2022-11-14T00:07:14;5.80;99.90
9006;DHT22;62284;50.702;7.140;2022-11-14T00:09:41;5.80;99.90
9006;DHT22;62284;50.702;7.140;2022-11-14T00:12:08;5.90;99.90
9006;DHT22;62284;50.702;7.140;2022-11-14T00:14:36;5.90;99.90
9006;DHT22;62284;50.702;7.140;2022-11-14T00:17:04;5.90;99.90
9006;DHT22;62284;50.702;7.140;2022-11-14T00:19:33;6.00;99.90
9006;DHT22;62284;50.702;7.140;2022-11-14T00:22:01;5.90;99.90
9006;DHT22;62284;50.702;7.140;2022-11-14T00:24:28;5.80;99.90
9006;DHT22;62284;50.702;7.140;2022-11-14T00:26:55;5.90;99.90
9006;DHT22;62284;50.702;7.140;2022-11-14T00:29:22;5.90;99.90
9006;DHT22;62284;50.702;7.140;2022-11-14T00:31:48;5.90;99.90
9006;DHT22;62284;50.702;7.140;2022-11-14T00:34:15;6.00;99.90
9006;DHT22;62284;50.702;7.140;2022-11-14T00:36:42;6.00;99.90
9006;DHT22;62284;50.702;7.140;2022-11-14T00:39:13;6.00;99.90
9006;DHT22;62284;50.702;7.140;2022-11-14T00:41:40;6.00;99.90
9006;DHT22;62284;50.702;7.140;2022-11-14T00:44:07;6.00;99.90
9006;DHT22;62284;50.702;7.140;2022-11-14T00:46:35;5.90;99.90
9006;DHT22;62284;50.702;7.140;2022-11-14T00:49:03;5.90;99.90
9006;DHT22;62284;50.702;7.140;2022-11-14T00:51:29;5.90;99.90
9006;DHT22;62284;50.702;7.140;2022-11-14T00:53:56;6.00;99.90
9006;DHT22;62284;50.702;7.140;2022-11-14T00:56:24;6.00;99.90
9006;DHT22;62284;50.702;7.140;2022-11-14T00:58:51;5.80;99.90
9006;DHT22;62284;50.702;7.140;2022-11-14T01:01:18;5.70;99.90
9006;DHT22;62284;50.702;7.140;2022-11-14T01:03:47;5.70;99.90
9006;DHT22;62284;50.702;7.140;2022-11-14T01:06:14;5.70;99.90
9006;DHT22;62284;50.702;7.140;2022-11-14T01:08:41;5.60;99.90
9006;DHT22;62284;50.702;7.140;2022-11-14T01:11:09;5.50;99.90
9006;DHT22;62284;50.702;7.140;2022-11-14T01:13:38;5.50;99.90
9006;DHT22;62284;50.702;7.140;2022-11-14T01:16:07;5.50;99.90
9006;DHT22;62284;50.702;7.140;2022-11-14T01:18:36;5.50;99.90
9006;DHT22;62284;50.702;7.140;2022-11-14T01:21:04;5.50;99.90
9006;DHT22;62284;50.702;7.140;2022-11-14T01:23:32;5.50;99.90
9006;DHT22;62284;50.702;7.140;2022-11-14T01:26:01;5.50;99.90
9006;DHT22;62284;50.702;7.140;2022-11-14T01:28:28;5.40;99.90
9006;DHT22;62284;50.702;7.140;2022-11-14T01:31:06;5.40;99.90
9006;DHT22;62284;50.702;7.140;2022-11-14T01:33:33;5.30;99.90
9006;DHT22;62284;50.702;7.140;2022-11-14T01:36:00;5.20;99.90
9006;DHT22;62284;50.702;7.140;2022-11-14T01:38:27;5.20;99.90
9006;DHT22;62284;50.702;7.140;2022-11-14T01:40:54;5.10;99.90
9006;DHT22;62284;50.702;7.140;2022-11-14T01:43:25;5.10;99.90
9006;DHT22;62284;50.702;7.140;2022-11-14T01:45:57;5.10;99.90
9006;DHT22;62284;50.702;7.140;2022-11-14T01:48:28;5.00;99.90
9006;DHT22;62284;50.702;7.140;2022-11-14T01:51:00;5.00;99.90
9006;DHT22;62284;50.702;7.140;2022-11-14T01:53:27;5.00;99.90
9006;DHT22;62284;50.702;7.140;2022-11-14T01:55:58;5.00;99.90
9006;DHT22;62284;50.702;7.140;2022-11-14T01:58:26;4.90;99.90
9006;DHT22;62284;50.702;7.140;2022-11-14T02:00:54;4.90;99.90
9006;DHT22;62284;50.702;7.140;2022-11-14T02:03:23;4.90;99.90
9006;DHT22;62284;50.702;7.140;2022-11-14T02:05:51;4.90;99.90
9006;DHT22;62284;50.702;7.140;2022-11-14T02:08:19;4.80;99.90
9006;DHT22;62284;50.702;7.140;2022-11-14T02:10:47;4.70;99.90
9006;DHT22;62284;50.702;7.140;2022-11-14T02:13:13;4.70;99.90
9006;DHT22;62284;50.702;7.140;2022-11-14T02:15:40;4.70;99.90
9006;DHT22;62284;50.702;7.140;2022-11-14T02:18:07;4.70;99.90
9006;DHT22;62284;50.702;7.140;2022-11-14T02:20:37;4.60;99.90
9006;DHT22;62284;50.702;7.140;2022-11-14T02:23:09;4.60;99.90
9006;DHT22;62284;50.702;7.140;2022-11-14T02:25:36;4.60;99.90
9006;DHT22;62284;50.702;7.140;2022-11-14T02:28:05;4.60;99.90
9006;DHT22;62284;50.702;7.140;2022-11-14T02:30:33;4.50;99.90
9006;DHT22;62284;50.702;7.140;2022-11-14T02:33:00;4.50;99.90
9006;DHT22;62284;50.702;7.140;2022-11-14T02:35:27;4.50;99.90
9006;DHT22;62284;50.702;7.140;2022-11-14T02:37:55;4.50;99.90
9006;DHT22;62284;50.702;7.140;2022-11-14T02:40:22;4.40;99.90
9006;DHT22;62284;50.702;7.140;2022-11-14T02:42:48;4.30;99.90
9006;DHT22;62284;50.702;7.140;2022-11-14T02:45:15;4.30;99.90
9006;DHT22;62284;50.702;7.140;2022-11-14T02:47:43;4.20;99.90
9006;DHT22;62284;50.702;7.140;2022-11-14T02:50:10;4.20;99.90
9006;DHT22;62284;50.702;7.140;2022-11-14T02:52:37;4.30;99.90
9006;DHT22;62284;50.702;7.140;2022-11-14T02:55:06;4.30;99.90
9006;DHT22;62284;50.702;7.140;2022-11-14T02:57:33;4.30;99.90
9006;DHT22;62284;50.702;7.140;2022-11-14T03:00:00;4.40;99.90
9006;DHT22;62284;50.702;7.140;2022-11-14T03:02:27;4.40;99.90
9006;DHT22;62284;50.702;7.140;2022-11-14T03:04:53;4.40;99.90
9006;DHT22;62284;50.702;7.140;2022-11-14T03:07:20;4.40;99.90
9006;DHT22;62284;50.702;7.140;2022-11-14T03:09:47;4.50;99.90
9006;DHT22;62284;50.702;7.140;2022-11-14T03:12:16;4.50;99.90
9006;DHT22;62284;50.702;7.140;2022-11-14T03:14:43;4.60;99.90
9006;DHT22;62284;50.702;7.140;2022-11-14T03:17:10;4.50;99.90
9006;DHT22;62284;50.702;7.140;2022-11-14T03:19:37;4.60;99.90
9006;DHT22;62284;50.702;7.140;2022-11-14T03:22:04;4.60;99.90
9006;DHT22;62284;50.702;7.140;2022-11-14T03:24:31;4.60;99.90
9006;DHT22;62284;50.702;7.140;2022-11-14T03:26:58;4.60;99.90
9006;DHT22;62284;50.702;7.140;2022-11-14T03:29:26;4.60;99.90
9006;DHT22;62284;50.702;7.140;2022-11-14T03:31:53;4.60;99.90
9006;DHT22;62284;50.702;7.140;2022-11-14T03:34:20;4.60;99.90
9006;DHT22;62284;50.702;7.140;2022-11-14T03:36:47;4.50;99.90
9006;DHT22;62284;50.702;7.140;2022-11-14T03:39:13;4.40;99.90
9006;DHT22;62284;50.702;7.140;2022-11-14T03:41:40;4.30;99.90
9006;DHT22;62284;50.702;7.140;2022-11-14T03:44:07;4.40;99.90
9006;DHT22;62284;50.702;7.140;2022-11-14T03:46:35;4.30;99.90
9006;DHT22;62284;50.702;7.140;2022-11-14T03:49:02;4.30;99.90
9006;DHT22;62284;50.702;7.140;2022-11-14T03:51:29;4.20;99.90
9006;DHT22;62284;50.702;7.140;2022-11-14T03:53:56;4.10;99.90
9006;DHT22;62284;50.702;7.140;2022-11-14T03:56:23;4.20;99.90
9006;DHT22;62284;50.702;7.140;2022-11-14T03:58:50;4.30;99.90
9006;DHT22;62284;50.702;7.140;2022-11-14T04:01:16;4.30;99.90
9006;DHT22;62284;50.702;7.140;2022-11-14T04:03:44;4.30;99.90
9006;DHT22;62284;50.702;7.140;2022-11-14T04:06:11;4.30;99.90
9006;DHT22;62284;50.702;7.140;2022-11-14T04:08:39;4.30;99.90
9006;DHT22;62284;50.702;7.140;2022-11-14T04:11:06;4.30;99.90
9006;DHT22;62284;50.702;7.140;2022-11-14T04:13:33;4.30;99.90
9006;DHT22;62284;50.702;7.140;2022-11-14T04:16:00;4.20;99.90
9006;DHT22;62284;50.702;7.140;2022-11-14T04:18:27;4.10;99.90
9006;DHT22;62284;50.702;7.140;2022-11-14T04:20:55;4.20;99.90
9006;DHT22;62284;50.702;7.140;2022-11-14T04:23:22;4.20;99.90
9006;DHT22;62284;50.702;7.140;2022-11-14T04:25:49;4.20;99.90
9006;DHT22;62284;50.702;7.140;2022-11-14T04:28:16;4.20;99.90
9006;DHT22;62284;50.702;7.140;2022-11-14T04:30:42;4.20;99.90
9006;DHT22;62284;50.702;7.140;2022-11-14T04:33:10;4.10;99.90
9006;DHT22;62284;50.702;7.140;2022-11-14T04:35:37;4.10;99.90
9006;DHT22;62284;50.702;7.140;2022-11-14T04:38:05;4.00;99.90
9006;DHT22;62284;50.702;7.140;2022-11-14T04:40:32;4.00;99.90
9006;DHT22;62284;50.702;7.140;2022-11-14T04:42:59;4.10;99.90
9006;DHT22;62284;50.702;7.140;2022-11-14T04:45:26;4.10;99.90
9006;DHT22;62284;50.702;7.140;2022-11-14T04:47:53;4.10;99.90
9006;DHT22;62284;50.702;7.140;2022-11-14T04:50:20;4.00;99.90
9006;DHT22;62284;50.702;7.140;2022-11-14T04:52:50;4.00;99.90
9006;DHT22;62284;50.702;7.140;2022-11-14T04:55:18;4.00;99.90
9006;DHT22;62284;50.702;7.140;2022-11-14T04:57:45;3.90;99.90
9006;DHT22;62284;50.702;7.140;2022-11-14T05:00:13;3.90;99.90
9006;DHT22;62284;50.702;7.140;2022-11-14T05:02:40;3.90;99.90
9006;DHT22;62284;50.702;7.140;2022-11-14T05:05:07;3.90;99.90
9006;DHT22;62284;50.702;7.140;2022-11-14T05:07:34;3.90;99.90
9006;DHT22;62284;50.702;7.140;2022-11-14T05:10:01;3.90;99.90
9006;DHT22;62284;50.702;7.140;2022-11-14T05:12:29;3.90;99.90
9006;DHT22;62284;50.702;7.140;2022-11-14T05:14:56;4.00;99.90
9006;DHT22;62284;50.702;7.140;2022-11-14T05:17:23;4.00;99.90
9006;DHT22;62284;50.702;7.140;2022-11-14T05:19:50;4.00;99.90
9006;DHT22;62284;50.702;7.140;2022-11-14T05:22:17;3.90;99.90
9006;DHT22;62284;50.702;7.140;2022-11-14T05:24:44;3.80;99.90
9006;DHT22;62284;50.702;7.140;2022-11-14T05:27:10;3.70;99.90
9006;DHT22;62284;50.702;7.140;2022-11-14T05:29:39;3.70;99.90
9006;DHT22;62284;50.702;7.140;2022-11-14T05:32:05;3.70;99.90
9006;DHT22;62284;50.702;7.140;2022-11-14T05:34:32;3.80;99.90
9006;DHT22;62284;50.702;7.140;2022-11-14T05:36:59;3.90;99.90
9006;DHT22;62284;50.702;7.140;2022-11-14T05:39:28;3.80;99.90
9006;DHT22;62284;50.702;7.140;2022-11-14T05:41:55;3.80;99.90
9006;DHT22;62284;50.702;7.140;2022-11-14T05:44:21;3.90;99.90
9006;DHT22;62284;50.702;7.140;2022-11-14T05:46:50;3.90;99.90
9006;DHT22;62284;50.702;7.140;2022-11-14T05:49:16;4.00;99.90
9006;DHT22;62284;50.702;7.140;2022-11-14T05:51:43;4.00;99.90
9006;DHT22;62284;50.702;7.140;2022-11-14T05:54:10;4.10;99.90
9006;DHT22;62284;50.702;7.140;2022-11-14T05:56:37;4.10;99.90
9006;DHT22;62284;50.702;7.140;2022-11-14T05:59:04;4.10;99.90
9006;DHT22;62284;50.702;7.140;2022-11-14T06:01:31;4.20;99.90
9006;DHT22;62284;50.702;7.140;2022-11-14T06:03:59;4.20;99.90
9006;DHT22;62284;50.702;7.140;2022-11-14T06:06:26;4.30;99.90
9006;DHT22;62284;50.702;7.140;2022-11-14T06:08:53;4.30;99.90
9006;DHT22;62284;50.702;7.140;2022-11-14T06:11:20;4.40;99.90
9006;DHT22;62284;50.702;7.140;2022-11-14T06:13:47;4.50;99.90
9006;DHT22;62284;50.702;7.140;2022-11-14T06:16:15;4.60;99.90
9006;DHT22;62284;50.702;7.140;2022-11-14T06:18:43;4.70;99.90
9006;DHT22;62284;50.702;7.140;2022-11-14T06:21:13;4.70;99.90
9006;DHT22;62284;50.702;7.140;2022-11-14T06:23:40;4.80;99.90
9006;DHT22;62284;50.702;7.140;2022-11-14T06:26:14;4.90;99.90
9006;DHT22;62284;50.702;7.140;2022-11-14T06:28:42;4.90;99.90
9006;DHT22;62284;50.702;7.140;2022-11-14T06:31:08;5.00;99.90
9006;DHT22;62284;50.702;7.140;2022-11-14T06:33:36;5.10;99.90
9006;DHT22;62284;50.702;7.140;2022-11-14T06:36:05;5.20;99.90
9006;DHT22;62284;50.702;7.140;2022-11-14T06:38:35;5.20;99.90
9006;DHT22;62284;50.702;7.140;2022-11-14T06:41:03;5.30;99.90
9006;DHT22;62284;50.702;7.140;2022-11-14T06:43:32;5.30;99.90
9006;DHT22;62284;50.702;7.140;2022-11-14T06:45:59;5.30;99.90
9006;DHT22;62284;50.702;7.140;2022-11-14T06:48:26;5.20;99.90
9006;DHT22;62284;50.702;7.140;2022-11-14T06:50:54;5.20;99.90
9006;DHT22;62284;50.702;7.140;2022-11-14T06:53:21;5.20;99.90
9006;DHT22;62284;50.702;7.140;2022-11-14T06:55:54;5.20;99.90
9006;DHT22;62284;50.702;7.140;2022-11-14T06:58:24;5.30;99.90
9006;DHT22;62284;50.702;7.140;2022-11-14T07:00:51;5.20;99.90
9006;DHT22;62284;50.702;7.140;2022-11-14T07:03:17;5.20;99.90
9006;DHT22;62284;50.702;7.140;2022-11-14T07:05:45;5.30;99.90
9006;DHT22;62284;50.702;7.140;2022-11-14T07:08:12;5.40;99.90
9006;DHT22;62284;50.702;7.140;2022-11-14T07:10:39;5.50;99.90
9006;DHT22;62284;50.702;7.140;2022-11-14T07:13:08;5.60;99.90
9006;DHT22;62284;50.702;7.140;2022-11-14T07:15:36;5.70;99.90
9006;DHT22;62284;50.702;7.140;2022-11-14T07:18:03;5.80;99.90
9006;DHT22;62284;50.702;7.140;2022-11-14T07:20:30;5.80;99.90
9006;DHT22;62284;50.702;7.140;2022-11-14T07:22:56;6.00;99.90
9006;DHT22;62284;50.702;7.140;2022-11-14T07:25:23;6.20;99.90
9006;DHT22;62284;50.702;7.140;2022-11-14T07:27:50;6.20;99.90
9006;DHT22;62284;50.702;7.140;2022-11-14T07:30:18;6.30;99.90
9006;DHT22;62284;50.702;7.140;2022-11-14T07:32:45;6.50;99.90
9006;DHT22;62284;50.702;7.140;2022-11-14T07:35:12;6.50;99.90
9006;DHT22;62284;50.702;7.140;2022-11-14T07:37:39;6.60;99.90
9006;DHT22;62284;50.702;7.140;2022-11-14T07:40:07;6.60;99.90
9006;DHT22;62284;50.702;7.140;2022-11-14T07:42:34;6.70;99.90
9006;DHT22;62284;50.702;7.140;2022-11-14T07:45:01;6.80;99.90
9006;DHT22;62284;50.702;7.140;2022-11-14T07:47:29;6.80;99.90
9006;DHT22;62284;50.702;7.140;2022-11-14T07:49:56;6.90;99.90
9006;DHT22;62284;50.702;7.140;2022-11-14T07:52:22;6.90;99.90
9006;DHT22;62284;50.702;7.140;2022-11-14T07:54:50;7.00;99.90
9006;DHT22;62284;50.702;7.140;2022-11-14T07:57:17;7.00;99.90
9006;DHT22;62284;50.702;7.140;2022-11-14T07:59:44;7.10;99.90
9006;DHT22;62284;50.702;7.140;2022-11-14T08:02:12;7.20;99.90
9006;DHT22;62284;50.702;7.140;2022-11-14T08:04:41;7.20;99.90
9006;DHT22;62284;50.702;7.140;2022-11-14T08:07:08;7.30;99.90
9006;DHT22;62284;50.702;7.140;2022-11-14T08:09:35;7.30;99.90
9006;DHT22;62284;50.702;7.140;2022-11-14T08:12:02;7.30;99.90
9006;DHT22;62284;50.702;7.140;2022-11-14T08:14:29;7.40;99.90
9006;DHT22;62284;50.702;7.140;2022-11-14T08:16:56;7.40;99.90
9006;DHT22;62284;50.702;7.140;2022-11-14T08:19:23;7.40;99.90
9006;DHT22;62284;50.702;7.140;2022-11-14T08:21:51;7.50;99.90
9006;DHT22;62284;50.702;7.140;2022-11-14T08:24:18;7.50;99.90
9006;DHT22;62284;50.702;7.140;2022-11-14T08:26:44;7.60;99.90
9006;DHT22;62284;50.702;7.140;2022-11-14T08:29:11;7.70;99.90
9006;DHT22;62284;50.702;7.140;2022-11-14T08:31:38;7.70;99.90
9006;DHT22;62284;50.702;7.140;2022-11-14T08:34:05;7.70;99.90
9006;DHT22;62284;50.702;7.140;2022-11-14T08:36:32;7.70;99.90
9006;DHT22;62284;50.702;7.140;2022-11-14T08:39:00;7.70;99.90
9006;DHT22;62284;50.702;7.140;2022-11-14T08:41:27;7.80;99.90
9006;DHT22;62284;50.702;7.140;2022-11-14T08:43:54;7.80;99.90
9006;DHT22;62284;50.702;7.140;2022-11-14T08:46:21;7.80;99.90
9006;DHT22;62284;50.702;7.140;2022-11-14T08:48:48;7.80;99.90
9006;DHT22;62284;50.702;7.140;2022-11-14T08:51:14;7.80;99.90
9006;DHT22;62284;50.702;7.140;2022-11-14T08:53:41;7.90;99.90
9006;DHT22;62284;50.702;7.140;2022-11-14T08:56:10;7.90;99.90
9006;DHT22;62284;50.702;7.140;2022-11-14T08:58:37;7.90;99.90
9006;DHT22;62284;50.702;7.140;2022-11-14T09:01:05;7.90;99.90
9006;DHT22;62284;50.702;7.140;2022-11-14T09:03:33;7.90;99.90
9006;DHT22;62284;50.702;7.140;2022-11-14T09:06:00;8.00;99.90
9006;DHT22;62284;50.702;7.140;2022-11-14T09:08:27;8.00;99.90
9006;DHT22;62284;50.702;7.140;2022-11-14T09:10:54;8.00;99.90
9006;DHT22;62284;50.702;7.140;2022-11-14T09:13:23;8.10;99.90
9006;DHT22;62284;50.702;7.140;2022-11-14T09:15:49;8.10;99.90
9006;DHT22;62284;50.702;7.140;2022-11-14T09:18:16;8.10;99.90
9006;DHT22;62284;50.702;7.140;2022-11-14T09:20:43;8.20;99.90
9006;DHT22;62284;50.702;7.140;2022-11-14T09:23:10;8.30;99.90
9006;DHT22;62284;50.702;7.140;2022-11-14T09:25:37;8.30;99.90
9006;DHT22;62284;50.702;7.140;2022-11-14T09:28:05;8.30;99.90
9006;DHT22;62284;50.702;7.140;2022-11-14T09:30:34;8.40;99.90
9006;DHT22;62284;50.702;7.140;2022-11-14T09:33:03;8.40;99.90
9006;DHT22;62284;50.702;7.140;2022-11-14T09:35:30;8.40;99.90
9006;DHT22;62284;50.702;7.140;2022-11-14T09:38:01;8.40;99.90
9006;DHT22;62284;50.702;7.140;2022-11-14T09:40:29;8.50;99.90
9006;DHT22;62284;50.702;7.140;2022-11-14T09:43:14;8.40;99.90
9006;DHT22;62284;50.702;7.140;2022-11-14T09:45:49;8.30;99.90
9006;DHT22;62284;50.702;7.140;2022-11-14T09:48:20;8.30;99.90
9006;DHT22;62284;50.702;7.140;2022-11-14T09:50:58;8.30;99.90
9006;DHT22;62284;50.702;7.140;2022-11-14T09:53:32;8.40;99.90
9006;DHT22;62284;50.702;7.140;2022-11-14T09:55:59;8.50;99.90
9006;DHT22;62284;50.702;7.140;2022-11-14T09:58:27;8.60;99.90
9006;DHT22;62284;50.702;7.140;2022-11-14T10:00:59;8.70;99.90
9006;DHT22;62284;50.702;7.140;2022-11-14T10:03:35;8.80;99.90
9006;DHT22;62284;50.702;7.140;2022-11-14T10:06:16;8.80;99.90
9006;DHT22;62284;50.702;7.140;2022-11-14T10:09:00;8.90;99.90
9006;DHT22;62284;50.702;7.140;2022-11-14T10:11:32;8.90;99.90
9006;DHT22;62284;50.702;7.140;2022-11-14T10:14:18;8.90;99.90
9006;DHT22;62284;50.702;7.140;2022-11-14T10:16:56;9.00;99.90
9006;DHT22;62284;50.702;7.140;2022-11-14T10:19:30;8.90;99.90
9006;DHT22;62284;50.702;7.140;2022-11-14T10:22:10;8.90;99.90
9006;DHT22;62284;50.702;7.140;2022-11-14T10:25:02;9.00;99.90
9006;DHT22;62284;50.702;7.140;2022-11-14T10:27:32;9.10;99.90
9006;DHT22;62284;50.702;7.140;2022-11-14T10:30:08;9.10;99.90
9006;DHT22;62284;50.702;7.140;2022-11-14T10:33:08;9.10;99.90
9006;DHT22;62284;50.702;7.140;2022-11-14T10:35:39;9.20;99.90
9006;DHT22;62284;50.702;7.140;2022-11-14T10:38:12;9.20;99.90
9006;DHT22;62284;50.702;7.140;2022-11-14T10:40:44;9.10;99.90
9006;DHT22;62284;50.702;7.140;2022-11-14T10:43:24;9.10;99.90
9006;DHT22;62284;50.702;7.140;2022-11-14T10:45:56;9.20;99.90
9006;DHT22;62284;50.702;7.140;2022-11-14T10:48:29;9.20;99.90
9006;DHT22;62284;50.702;7.140;2022-11-14T10:50:57;9.20;99.90
9006;DHT22;62284;50.702;7.140;2022-11-14T10:53:31;9.20;99.90
9006;DHT22;62284;50.702;7.140;2022-11-14T10:56:01;9.30;99.90
9006;DHT22;62284;50.702;7.140;2022-11-14T10:58:28;9.30;99.90
9006;DHT22;62284;50.702;7.140;2022-11-14T11:00:55;9.30;99.90
9006;DHT22;62284;50.702;7.140;2022-11-14T11:03:39;9.30;99.90
9006;DHT22;62284;50.702;7.140;2022-11-14T11:06:24;9.40;99.90
9006;DHT22;62284;50.702;7.140;2022-11-14T11:08:52;9.40;99.90
9006;DHT22;62284;50.702;7.140;2022-11-14T11:11:37;9.40;99.90
9006;DHT22;62284;50.702;7.140;2022-11-14T11:14:04;9.40;99.90
9006;DHT22;62284;50.702;7.140;2022-11-14T11:16:31;9.40;99.90
9006;DHT22;62284;50.702;7.140;2022-11-14T11:19:17;9.40;99.90
9006;DHT22;62284;50.702;7.140;2022-11-14T11:21:49;9.50;99.90
9006;DHT22;62284;50.702;7.140;2022-11-14T11:24:31;9.40;99.90
9006;DHT22;62284;50.702;7.140;2022-11-14T11:27:20;9.50;99.90
9006;DHT22;62284;50.702;7.140;2022-11-14T11:30:01;9.60;99.90
9006;DHT22;62284;50.702;7.140;2022-11-14T11:32:28;9.60;99.90
9006;DHT22;62284;50.702;7.140;2022-11-14T11:35:00;9.60;99.90
9006;DHT22;62284;50.702;7.140;2022-11-14T11:37:30;9.70;99.90
9006;DHT22;62284;50.702;7.140;2022-11-14T11:40:03;9.60;99.90
9006;DHT22;62284;50.702;7.140;2022-11-14T11:42:35;9.60;99.90
9006;DHT22;62284;50.702;7.140;2022-11-14T11:45:09;9.60;99.90
9006;DHT22;62284;50.702;7.140;2022-11-14T11:47:45;9.60;99.90
9006;DHT22;62284;50.702;7.140;2022-11-14T11:50:16;9.70;99.90
9006;DHT22;62284;50.702;7.140;2022-11-14T11:52:49;9.80;99.90
9006;DHT22;62284;50.702;7.140;2022-11-14T11:55:20;9.80;99.90
9006;DHT22;62284;50.702;7.140;2022-11-14T11:57:52;10.00;99.90
9006;DHT22;62284;50.702;7.140;2022-11-14T12:00:22;10.20;99.90
9006;DHT22;62284;50.702;7.140;2022-11-14T12:02:50;10.40;99.90
9006;DHT22;62284;50.702;7.140;2022-11-14T12:05:25;10.40;99.90
9006;DHT22;62284;50.702;7.140;2022-11-14T12:07:59;10.40;99.90
9006;DHT22;62284;50.702;7.140;2022-11-14T12:10:31;10.40;99.90
9006;DHT22;62284;50.702;7.140;2022-11-14T12:13:13;10.30;99.90
9006;DHT22;62284;50.702;7.140;2022-11-14T12:15:53;10.40;99.90
9006;DHT22;62284;50.702;7.140;2022-11-14T12:18:35;10.20;99.90
9006;DHT22;62284;50.702;7.140;2022-11-14T12:21:21;10.50;99.90
9006;DHT22;62284;50.702;7.140;2022-11-14T12:24:07;10.40;99.90
9006;DHT22;62284;50.702;7.140;2022-11-14T12:26:57;10.30;99.90
9006;DHT22;62284;50.702;7.140;2022-11-14T12:29:40;10.30;99.90
9006;DHT22;62284;50.702;7.140;2022-11-14T12:32:14;10.30;99.90
9006;DHT22;62284;50.702;7.140;2022-11-14T12:34:44;10.20;99.90
9006;DHT22;62284;50.702;7.140;2022-11-14T12:37:19;10.10;99.90
9006;DHT22;62284;50.702;7.140;2022-11-14T12:39:56;10.10;99.90
9006;DHT22;62284;50.702;7.140;2022-11-14T12:42:24;10.00;99.90
9006;DHT22;62284;50.702;7.140;2022-11-14T12:44:51;9.90;99.90
9006;DHT22;62284;50.702;7.140;2022-11-14T12:47:20;9.90;99.90
9006;DHT22;62284;50.702;7.140;2022-11-14T12:52:53;9.90;99.90
9006;DHT22;62284;50.702;7.140;2022-11-14T12:55:52;9.90;99.90
9006;DHT22;62284;50.702;7.140;2022-11-14T12:58:34;10.00;99.90
9006;DHT22;62284;50.702;7.140;2022-11-14T13:01:22;9.90;99.90
9006;DHT22;62284;50.702;7.140;2022-11-14T13:04:01;9.90;99.90
9006;DHT22;62284;50.702;7.140;2022-11-14T13:06:40;9.90;99.90
9006;DHT22;62284;50.702;7.140;2022-11-14T13:09:30;9.90;99.90
9006;DHT22;62284;50.702;7.140;2022-11-14T13:11:58;9.80;99.90
9006;DHT22;62284;50.702;7.140;2022-11-14T13:15:21;9.80;99.90
9006;DHT22;62284;50.702;7.140;2022-11-14T13:18:20;9.80;99.90
9006;DHT22;62284;50.702;7.140;2022-11-14T13:21:15;9.80;99.90
9006;DHT22;62284;50.702;7.140;2022-11-14T13:23:59;9.90;99.90
9006;DHT22;62284;50.702;7.140;2022-11-14T13:26:55;9.90;99.90
9006;DHT22;62284;50.702;7.140;2022-11-14T13:29:49;10.00;99.90
9006;DHT22;62284;50.702;7.140;2022-11-14T13:32:50;9.90;99.90
9006;DHT22;62284;50.702;7.140;2022-11-14T13:35:36;9.90;99.90
9006;DHT22;62284;50.702;7.140;2022-11-14T13:45:13;9.80;99.90
9006;DHT22;62284;50.702;7.140;2022-11-14T13:50:48;9.80;99.90
9006;DHT22;62284;50.702;7.140;2022-11-14T13:53:18;9.80;99.90
9006;DHT22;62284;50.702;7.140;2022-11-14T13:55:55;9.80;99.90
9006;DHT22;62284;50.702;7.140;2022-11-14T13:58:46;9.90;99.90
9006;DHT22;62284;50.702;7.140;2022-11-14T14:01:28;9.90;99.90
9006;DHT22;62284;50.702;7.140;2022-11-14T14:04:21;10.00;99.90
9006;DHT22;62284;50.702;7.140;2022-11-14T14:06:56;10.00;99.90
9006;DHT22;62284;50.702;7.140;2022-11-14T14:09:31;10.00;99.90
9006;DHT22;62284;50.702;7.140;2022-11-14T14:12:24;10.00;99.90
9006;DHT22;62284;50.702;7.140;2022-11-14T14:15:03;9.90;99.90
9006;DHT22;62284;50.702;7.140;2022-11-14T14:17:41;10.00;99.90
9006;DHT22;62284;50.702;7.140;2022-11-14T14:20:18;10.00;99.90
9006;DHT22;62284;50.702;7.140;2022-11-14T14:22:54;10.00;99.90
9006;DHT22;62284;50.702;7.140;2022-11-14T14:25:30;9.90;99.90
9006;DHT22;62284;50.702;7.140;2022-11-14T14:28:08;9.90;99.90
9006;DHT22;62284;50.702;7.140;2022-11-14T14:30:36;9.90;99.90
9006;DHT22;62284;50.702;7.140;2022-11-14T14:33:12;9.90;99.90
9006;DHT22;62284;50.702;7.140;2022-11-14T14:35:48;10.00;99.90
9006;DHT22;62284;50.702;7.140;2022-11-14T14:38:23;10.10;99.90
9006;DHT22;62284;50.702;7.140;2022-11-14T14:40:53;10.00;99.90
9006;DHT22;62284;50.702;7.140;2022-11-14T14:43:24;10.10;99.90
9006;DHT22;62284;50.702;7.140;2022-11-14T14:45:54;10.00;99.90
9006;DHT22;62284;50.702;7.140;2022-11-14T14:48:25;10.00;99.90
9006;DHT22;62284;50.702;7.140;2022-11-14T14:50:54;10.00;99.90
9006;DHT22;62284;50.702;7.140;2022-11-14T14:53:22;10.00;99.90
9006;DHT22;62284;50.702;7.140;2022-11-14T14:55:53;10.00;99.90
9006;DHT22;62284;50.702;7.140;2022-11-14T14:58:25;10.00;99.90
9006;DHT22;62284;50.702;7.140;2022-11-14T15:00:55;10.00;99.90
9006;DHT22;62284;50.702;7.140;2022-11-14T15:03:27;10.00;99.90
9006;DHT22;62284;50.702;7.140;2022-11-14T15:06:04;10.00;99.90
9006;DHT22;62284;50.702;7.140;2022-11-14T15:08:36;10.00;99.90
9006;DHT22;62284;50.702;7.140;2022-11-14T15:11:05;10.00;99.90
9006;DHT22;62284;50.702;7.140;2022-11-14T15:13:33;10.00;99.90
9006;DHT22;62284;50.702;7.140;2022-11-14T15:16:01;10.00;99.90
9006;DHT22;62284;50.702;7.140;2022-11-14T15:18:31;10.00;99.90
9006;DHT22;62284;50.702;7.140;2022-11-14T15:21:08;10.10;99.90
9006;DHT22;62284;50.702;7.140;2022-11-14T15:23:37;10.10;99.90
9006;DHT22;62284;50.702;7.140;2022-11-14T15:26:11;9.90;99.90
9006;DHT22;62284;50.702;7.140;2022-11-14T15:28:39;10.00;99.90
9006;DHT22;62284;50.702;7.140;2022-11-14T15:31:11;10.00;99.90
9006;DHT22;62284;50.702;7.140;2022-11-14T15:33:42;10.00;99.90
9006;DHT22;62284;50.702;7.140;2022-11-14T15:36:10;10.00;99.90
9006;DHT22;62284;50.702;7.140;2022-11-14T15:38:38;10.00;99.90
9006;DHT22;62284;50.702;7.140;2022-11-14T15:41:17;10.00;99.90
9006;DHT22;62284;50.702;7.140;2022-11-14T15:43:49;10.00;99.90
9006;DHT22;62284;50.702;7.140;2022-11-14T15:46:39;10.10;99.90
9006;DHT22;62284;50.702;7.140;2022-11-14T15:49:14;10.00;99.90
9006;DHT22;62284;50.702;7.140;2022-11-14T15:51:45;9.90;99.90
9006;DHT22;62284;50.702;7.140;2022-11-14T15:54:25;9.90;99.90
9006;DHT22;62284;50.702;7.140;2022-11-14T15:56:55;10.00;99.90
9006;DHT22;62284;50.702;7.140;2022-11-14T15:59:23;10.00;99.90
9006;DHT22;62284;50.702;7.140;2022-11-14T16:01:53;10.00;99.90
9006;DHT22;62284;50.702;7.140;2022-11-14T16:04:27;10.00;99.90
9006;DHT22;62284;50.702;7.140;2022-11-14T16:06:55;10.00;99.90
9006;DHT22;62284;50.702;7.140;2022-11-14T16:09:22;10.00;99.90
9006;DHT22;62284;50.702;7.140;2022-11-14T16:11:49;9.90;99.90
9006;DHT22;62284;50.702;7.140;2022-11-14T16:14:16;9.90;99.90
9006;DHT22;62284;50.702;7.140;2022-11-14T16:16:43;9.90;99.90
9006;DHT22;62284;50.702;7.140;2022-11-14T16:19:12;10.00;99.90
9006;DHT22;62284;50.702;7.140;2022-11-14T16:21:41;9.90;99.90
9006;DHT22;62284;50.702;7.140;2022-11-14T16:24:13;10.00;99.90
9006;DHT22;62284;50.702;7.140;2022-11-14T16:26:40;10.00;99.90
9006;DHT22;62284;50.702;7.140;2022-11-14T16:29:07;10.00;99.90
9006;DHT22;62284;50.702;7.140;2022-11-14T16:31:34;9.90;99.90
9006;DHT22;62284;50.702;7.140;2022-11-14T16:34:01;9.90;99.90
9006;DHT22;62284;50.702;7.140;2022-11-14T16:36:28;10.00;99.90